createdAt,value
2023-01-25T00:00:04.446Z,68.32
2023-01-25T00:03:05.917Z,68.26
2023-01-25T00:06:09.859Z,68.00
2023-01-25T00:09:11.947Z,68.14
2023-01-25T00:12:14.568Z,67.60
2023-01-25T00:15:15.943Z,67.58
2023-01-25T00:18:18.483Z,67.70
2023-01-25T00:21:21.589Z,67.87
2023-01-25T00:24:26.291Z,67.43
2023-01-25T00:27:29.282Z,67.91
2023-01-25T00:30:30.612Z,67.81
2023-01-25T00:33:45.283Z,68.46
2023-01-25T00:36:49.416Z,68.09
2023-01-25T00:39:53.181Z,67.82
2023-01-25T00:42:56.287Z,68.28
2023-01-25T00:46:00.754Z,68.32
2023-01-25T00:49:03.423Z,67.75
2023-01-25T00:52:05.811Z,68.39
2023-01-25T00:55:11.113Z,68.29
2023-01-25T00:58:12.427Z,68.26
2023-01-25T01:01:15.101Z,68.42
2023-01-25T01:07:39.043Z,68.63
2023-01-25T01:10:41.519Z,68.58
2023-01-25T01:17:04.784Z,68.87
2023-01-25T01:20:07.956Z,69.11
2023-01-25T01:23:09.288Z,69.31
2023-01-25T01:26:15.276Z,68.85
2023-01-25T01:29:17.975Z,69.13
2023-01-25T01:32:19.419Z,68.86
2023-01-25T01:35:22.109Z,68.93
2023-01-25T01:38:23.831Z,68.32
2023-01-25T01:41:27.339Z,69.43
2023-01-25T01:44:46.505Z,69.40
2023-01-25T01:47:48.036Z,69.25
2023-01-25T01:50:57.600Z,69.49
2023-01-25T01:54:03.640Z,68.86
2023-01-25T01:57:09.933Z,68.88
2023-01-25T02:00:15.206Z,68.66
2023-01-25T02:03:18.025Z,69.38
2023-01-25T02:06:26.121Z,69.63
2023-01-25T02:09:33.045Z,69.68
2023-01-25T02:12:37.652Z,69.12
2023-01-25T02:15:45.679Z,68.70
2023-01-25T02:18:46.994Z,68.79
2023-01-25T02:21:51.580Z,69.12
2023-01-25T02:25:02.368Z,68.94
2023-01-25T02:28:10.163Z,69.09
2023-01-25T02:31:11.866Z,68.19
2023-01-25T02:34:14.525Z,69.09
2023-01-25T02:37:17.260Z,68.52
2023-01-25T02:43:42.234Z,68.94
2023-01-25T02:46:45.791Z,69.37
2023-01-25T02:49:47.140Z,69.04
2023-01-25T02:52:49.697Z,68.71
2023-01-25T02:55:51.808Z,68.72
2023-01-25T02:58:54.794Z,68.63
2023-01-25T03:01:56.150Z,68.89
2023-01-25T03:04:58.777Z,68.70
2023-01-25T03:08:00.175Z,69.19
2023-01-25T03:11:05.357Z,69.17
2023-01-25T03:14:08.011Z,68.85
2023-01-25T03:17:09.387Z,69.00
2023-01-25T03:20:13.062Z,69.63
2023-01-25T03:23:15.718Z,70.08
2023-01-25T03:26:19.865Z,70.43
2023-01-25T03:29:22.496Z,69.89
2023-01-25T03:32:23.864Z,69.00
2023-01-25T03:35:26.602Z,69.33
2023-01-25T03:38:28.125Z,70.05
2023-01-25T03:41:30.104Z,70.14
2023-01-25T03:44:32.765Z,69.55
2023-01-25T03:47:34.050Z,70.14
2023-01-25T03:50:36.616Z,70.39
2023-01-25T03:53:37.918Z,69.42
2023-01-25T03:56:41.386Z,69.36
2023-01-25T03:59:42.701Z,69.73
2023-01-25T04:02:45.275Z,69.21
2023-01-25T04:05:46.778Z,69.55
2023-01-25T04:08:48.137Z,69.23
2023-01-25T04:11:50.385Z,70.43
2023-01-25T04:14:51.724Z,69.89
2023-01-25T04:17:52.997Z,69.82
2023-01-25T04:20:55.067Z,69.24
2023-01-25T04:23:56.415Z,69.75
2023-01-25T04:26:59.646Z,69.86
2023-01-25T04:30:00.911Z,69.69
2023-01-25T04:33:04.152Z,70.31
2023-01-25T04:36:07.174Z,69.93
2023-01-25T04:39:08.468Z,69.65
2023-01-25T04:42:11.966Z,69.71
2023-01-25T04:45:13.430Z,70.15
2023-01-25T04:48:16.256Z,70.16
2023-01-25T04:51:17.541Z,69.87
2023-01-25T04:54:20.040Z,70.36
2023-01-25T04:57:22.286Z,70.33
2023-01-25T05:00:23.776Z,70.68
2023-01-25T05:03:26.789Z,69.87
2023-01-25T05:06:30.276Z,70.49
2023-01-25T05:09:31.596Z,70.89
2023-01-25T05:12:34.971Z,70.97
2023-01-25T05:15:37.326Z,69.91
2023-01-25T05:18:48.303Z,71.34
2023-01-25T05:22:00.268Z,70.72
2023-01-25T05:25:04.014Z,70.93
2023-01-25T05:28:06.326Z,70.25
2023-01-25T05:34:28.823Z,70.99
2023-01-25T05:37:31.369Z,70.48
2023-01-25T05:40:32.845Z,71.02
2023-01-25T05:43:36.048Z,70.74
2023-01-25T05:46:37.371Z,71.74
2023-01-25T05:49:38.705Z,70.89
2023-01-25T05:52:40.229Z,71.25
2023-01-25T05:59:04.598Z,71.24
2023-01-25T06:02:06.183Z,71.13
2023-01-25T06:05:10.112Z,70.94
2023-01-25T06:08:11.764Z,70.64
2023-01-25T06:14:36.557Z,70.71
2023-01-25T06:17:37.833Z,70.97
2023-01-25T06:20:40.386Z,71.23
2023-01-25T06:23:43.632Z,70.74
2023-01-25T06:26:46.318Z,71.03
2023-01-25T06:29:48.417Z,70.96
2023-01-25T06:32:51.121Z,70.76
2023-01-25T06:35:53.720Z,69.55
2023-01-25T06:38:56.756Z,71.24
2023-01-25T06:41:58.025Z,71.06
2023-01-25T06:45:01.307Z,71.19
2023-01-25T06:48:02.770Z,71.34
2023-01-25T06:51:09.971Z,71.60
2023-01-25T06:54:11.290Z,70.87
2023-01-25T06:57:12.633Z,70.58
2023-01-25T07:00:16.116Z,70.81
2023-01-25T07:03:17.607Z,70.99
2023-01-25T07:06:19.444Z,71.05
2023-01-25T07:09:23.564Z,70.99
2023-01-25T07:12:27.821Z,71.08
2023-01-25T07:15:29.774Z,71.62
2023-01-25T07:18:33.629Z,71.21
2023-01-25T07:21:34.985Z,71.34
2023-01-25T07:24:37.602Z,71.27
2023-01-25T07:27:38.928Z,71.81
2023-01-25T07:30:41.493Z,70.77
2023-01-25T07:33:49.142Z,71.28
2023-01-25T07:36:51.743Z,71.23
2023-01-25T07:39:54.319Z,72.17
2023-01-25T07:42:55.733Z,71.05
2023-01-25T07:46:05.042Z,70.22
2023-01-25T07:49:07.752Z,70.65
2023-01-25T07:52:09.224Z,71.53
2023-01-25T07:55:12.117Z,71.72
2023-01-25T07:58:14.128Z,71.39
2023-01-25T08:01:18.882Z,71.85
2023-01-25T08:04:20.242Z,71.22
2023-01-25T08:07:23.987Z,71.87
2023-01-25T08:10:25.408Z,70.82
2023-01-25T08:13:28.034Z,71.27
2023-01-25T08:16:33.675Z,70.52
2023-01-25T08:19:35.063Z,69.97
2023-01-25T08:22:36.347Z,71.44
2023-01-25T08:25:39.991Z,71.14
2023-01-25T08:28:42.654Z,71.32
2023-01-25T08:31:44.687Z,69.38
2023-01-25T08:34:46.242Z,70.92
2023-01-25T08:37:47.542Z,71.44
2023-01-25T08:40:50.158Z,70.63
2023-01-25T08:43:52.483Z,71.52
2023-01-25T08:46:54.522Z,72.33
2023-01-25T08:49:55.922Z,71.56
2023-01-25T08:52:57.234Z,73.28
2023-01-25T08:56:03.304Z,73.41
2023-01-25T08:59:06.700Z,73.14
2023-01-25T09:02:11.428Z,73.49
2023-01-25T09:05:14.063Z,73.56
2023-01-25T09:08:16.640Z,72.34
2023-01-25T09:11:20.115Z,72.97
2023-01-25T09:14:21.639Z,72.44
2023-01-25T09:17:24.888Z,72.99
2023-01-25T09:20:26.289Z,73.83
2023-01-25T09:23:27.904Z,72.93
2023-01-25T09:26:30.746Z,73.03
2023-01-25T09:29:32.762Z,73.68
2023-01-25T09:32:35.012Z,73.96
2023-01-25T09:35:36.574Z,72.65
2023-01-25T09:38:39.872Z,71.93
2023-01-25T09:45:48.568Z,73.56
2023-01-25T09:49:07.598Z,74.67
2023-01-25T09:55:54.490Z,73.53
2023-01-25T09:59:01.237Z,73.63
2023-01-25T10:02:14.087Z,73.60
2023-01-25T10:05:21.128Z,73.15
2023-01-25T10:08:31.551Z,73.10
2023-01-25T10:11:33.478Z,74.20
2023-01-25T10:14:36.232Z,73.60
2023-01-25T10:17:40.168Z,74.05
2023-01-25T10:20:48.203Z,73.54
2023-01-25T10:24:08.878Z,73.55
2023-01-25T10:27:23.460Z,73.53
2023-01-25T10:30:27.865Z,72.52
2023-01-25T10:33:34.270Z,73.62
2023-01-25T10:36:37.141Z,73.88
2023-01-25T10:39:45.037Z,74.23
2023-01-25T10:42:53.697Z,74.43
2023-01-25T10:45:56.629Z,75.24
2023-01-25T10:49:02.526Z,74.71
2023-01-25T10:52:17.572Z,75.06
2023-01-25T10:55:22.395Z,74.36
2023-01-25T10:58:33.790Z,75.76
2023-01-25T11:01:36.695Z,74.97
2023-01-25T11:04:40.462Z,75.75
2023-01-25T11:07:42.529Z,74.57
2023-01-25T11:10:45.800Z,74.55
2023-01-25T11:13:47.321Z,75.53
2023-01-25T11:16:49.179Z,75.67
2023-01-25T11:20:08.115Z,75.77
2023-01-25T11:23:22.511Z,75.63
2023-01-25T11:26:25.393Z,74.13
2023-01-25T11:29:26.867Z,74.56
2023-01-25T11:32:29.461Z,74.93
2023-01-25T11:35:35.255Z,74.15
2023-01-25T11:38:39.788Z,74.60
2023-01-25T11:42:04.220Z,74.31
2023-01-25T11:45:33.356Z,74.35
2023-01-25T11:49:01.030Z,74.74
2023-01-25T11:52:13.980Z,74.26
2023-01-25T11:55:24.772Z,73.59
2023-01-25T11:58:42.908Z,72.62
2023-01-25T12:02:05.185Z,73.42
2023-01-25T12:05:23.151Z,73.56
2023-01-25T12:08:42.489Z,73.34
2023-01-25T12:11:59.547Z,74.93
2023-01-25T12:15:13.928Z,75.78
2023-01-25T12:18:36.492Z,75.33
2023-01-25T12:21:54.879Z,74.89
2023-01-25T12:25:02.931Z,74.92
2023-01-25T12:28:14.100Z,75.47
2023-01-25T12:31:22.988Z,74.80
2023-01-25T12:34:34.132Z,75.52
2023-01-25T12:37:40.996Z,75.05
2023-01-25T12:40:50.783Z,75.77
2023-01-25T12:43:55.906Z,75.83
2023-01-25T12:47:05.253Z,77.32
2023-01-25T12:50:17.882Z,76.43
2023-01-25T12:53:21.539Z,75.45
2023-01-25T12:56:33.929Z,74.39
2023-01-25T12:59:44.422Z,74.23
2023-01-25T13:02:59.900Z,74.87
2023-01-25T13:06:10.689Z,74.88
2023-01-25T13:12:53.976Z,75.81
2023-01-25T13:15:57.351Z,75.45
2023-01-25T13:18:59.191Z,75.46
2023-01-25T13:22:01.739Z,75.22
2023-01-25T13:25:09.789Z,75.82
2023-01-25T13:28:43.828Z,76.50
2023-01-25T13:31:51.929Z,76.53
2023-01-25T13:34:59.459Z,76.91
2023-01-25T13:38:20.774Z,77.06
2023-01-25T13:41:23.483Z,76.20
2023-01-25T13:44:27.763Z,76.18
2023-01-25T13:47:35.153Z,76.78
2023-01-25T13:50:43.908Z,76.70
2023-01-25T13:53:56.889Z,75.77
2023-01-25T13:57:05.103Z,73.83
2023-01-25T14:00:15.545Z,73.40
2023-01-25T14:03:19.419Z,74.64
2023-01-25T14:06:25.922Z,74.61
2023-01-25T14:09:29.074Z,75.37
2023-01-25T14:12:36.990Z,74.07
2023-01-25T14:15:38.349Z,74.94
2023-01-25T14:18:42.370Z,73.10
2023-01-25T14:21:43.753Z,75.22
2023-01-25T14:24:45.076Z,74.47
2023-01-25T14:27:50.988Z,74.80
2023-01-25T14:30:54.233Z,74.90
2023-01-25T14:33:57.804Z,75.33
2023-01-25T14:37:06.724Z,76.27
2023-01-25T14:40:12.375Z,75.44
2023-01-25T14:43:16.597Z,75.56
2023-01-25T14:46:27.913Z,74.17
2023-01-25T14:49:29.980Z,75.68
2023-01-25T14:52:31.324Z,74.93
2023-01-25T14:55:34.005Z,77.13
2023-01-25T14:58:35.468Z,77.18
2023-01-25T15:01:40.840Z,76.11
2023-01-25T15:04:55.623Z,74.89
2023-01-25T15:07:59.573Z,75.34
2023-01-25T15:11:33.932Z,74.87
2023-01-25T15:14:47.792Z,76.13
2023-01-25T15:17:50.759Z,78.06
2023-01-25T15:20:52.960Z,77.67
2023-01-25T15:23:57.076Z,77.74
2023-01-25T15:26:58.411Z,77.21
2023-01-25T15:30:00.968Z,77.61
2023-01-25T15:33:02.280Z,75.93
2023-01-25T15:39:23.996Z,76.45
2023-01-25T15:42:26.558Z,76.44
2023-01-25T15:45:27.890Z,76.71
2023-01-25T15:48:32.249Z,75.10
2023-01-25T15:51:35.989Z,76.30
2023-01-25T15:54:37.366Z,76.45
2023-01-25T15:57:40.030Z,76.29
2023-01-25T16:00:41.483Z,75.85
2023-01-25T16:03:44.108Z,76.32
2023-01-25T16:06:49.328Z,75.25
2023-01-25T16:09:51.917Z,75.65
2023-01-25T16:12:53.316Z,75.72
2023-01-25T16:15:56.414Z,78.08
2023-01-25T16:18:57.784Z,78.62
2023-01-25T16:22:00.998Z,77.77
2023-01-25T16:25:03.742Z,77.81
2023-01-25T16:28:06.486Z,77.79
2023-01-25T16:31:16.757Z,78.41
2023-01-25T16:34:25.247Z,78.47
2023-01-25T16:37:27.193Z,77.20
2023-01-25T16:40:36.285Z,78.51
2023-01-25T16:43:42.946Z,77.99
2023-01-25T16:46:44.762Z,77.85
2023-01-25T16:49:48.390Z,78.25
2023-01-25T16:52:50.771Z,78.93
2023-01-25T16:55:53.653Z,78.22
2023-01-25T16:58:57.089Z,78.00
2023-01-25T17:01:59.590Z,78.54
2023-01-25T17:05:00.930Z,78.44
2023-01-25T17:08:05.082Z,78.30
2023-01-25T17:11:06.903Z,77.41
2023-01-25T17:14:13.528Z,78.78
2023-01-25T17:17:14.904Z,78.01
2023-01-25T17:20:17.293Z,79.27
2023-01-25T17:23:19.316Z,79.02
2023-01-25T17:26:22.986Z,78.15
2023-01-25T17:29:26.144Z,79.47
2023-01-25T17:32:28.022Z,79.15
2023-01-25T17:35:31.127Z,78.41
2023-01-25T17:38:33.341Z,78.52
2023-01-25T17:41:36.118Z,78.65
2023-01-25T17:44:37.588Z,79.12
2023-01-25T17:47:40.113Z,79.13
2023-01-25T17:50:42.679Z,78.11
2023-01-25T17:53:44.968Z,77.69
2023-01-25T17:56:47.790Z,78.20
2023-01-25T17:59:49.446Z,78.54
2023-01-25T18:06:16.016Z,78.77
2023-01-25T18:09:19.562Z,77.96
2023-01-25T18:12:20.909Z,78.37
2023-01-25T18:15:22.932Z,78.17
2023-01-25T18:18:25.614Z,79.08
2023-01-25T18:24:50.927Z,78.71
2023-01-25T18:27:54.382Z,78.48
2023-01-25T18:31:00.146Z,78.54
2023-01-25T18:37:24.875Z,78.94
2023-01-25T18:40:30.335Z,76.70
2023-01-25T18:43:32.752Z,78.47
2023-01-25T18:46:35.420Z,79.02
2023-01-25T18:49:37.999Z,78.85
2023-01-25T18:52:39.355Z,78.79
2023-01-25T18:55:43.091Z,79.33
2023-01-25T18:58:46.295Z,78.00
2023-01-25T19:01:47.708Z,78.72
2023-01-25T19:04:49.581Z,80.06
2023-01-25T19:07:52.110Z,78.99
2023-01-25T19:10:59.527Z,78.85
2023-01-25T19:14:02.367Z,79.52
2023-01-25T19:17:03.797Z,79.62
2023-01-25T19:20:07.303Z,79.52
2023-01-25T19:23:08.565Z,79.46
2023-01-25T19:26:14.185Z,78.93
2023-01-25T19:29:15.867Z,78.63
2023-01-25T19:32:17.427Z,78.70
2023-01-25T19:35:19.047Z,78.79
2023-01-25T19:38:20.423Z,78.40
2023-01-25T19:41:24.942Z,79.30
2023-01-25T19:44:26.517Z,79.36
2023-01-25T19:47:27.774Z,80.13
2023-01-25T19:50:30.071Z,79.46
2023-01-25T19:53:31.385Z,79.18
2023-01-25T19:56:38.767Z,77.50
2023-01-25T19:59:40.098Z,77.80
2023-01-25T20:02:42.723Z,77.63
2023-01-25T20:05:44.043Z,77.37
2023-01-25T20:08:49.257Z,78.31
2023-01-25T20:11:51.242Z,77.70
2023-01-25T20:14:53.237Z,77.04
2023-01-25T20:17:56.627Z,78.89
2023-01-25T20:20:59.821Z,78.72
2023-01-25T20:24:04.041Z,79.05
2023-01-25T20:27:06.670Z,78.89
2023-01-25T20:30:08.984Z,79.00
2023-01-25T20:33:10.903Z,78.42
2023-01-25T20:36:13.405Z,78.84
2023-01-25T20:39:17.804Z,79.20
2023-01-25T20:42:19.792Z,79.16
2023-01-25T20:45:21.057Z,79.21
2023-01-25T20:48:22.492Z,79.87
2023-01-25T20:51:23.832Z,79.65
2023-01-25T20:54:25.442Z,79.63
2023-01-25T20:57:27.491Z,78.98
2023-01-25T21:00:28.797Z,78.62
2023-01-25T21:06:54.549Z,79.60
2023-01-25T21:09:55.910Z,79.41
2023-01-25T21:16:20.615Z,78.69
2023-01-25T21:19:22.152Z,79.14
2023-01-25T21:22:25.431Z,78.33
2023-01-25T21:25:26.754Z,78.73
2023-01-25T21:31:52.602Z,79.25
2023-01-25T21:34:55.198Z,79.15
2023-01-25T21:37:57.747Z,78.15
2023-01-25T21:41:00.440Z,78.25
2023-01-25T21:44:22.427Z,79.51
2023-01-25T21:47:30.517Z,79.27
2023-01-25T21:54:11.613Z,78.51
2023-01-25T21:57:14.141Z,78.94
2023-01-25T22:03:38.139Z,78.03
2023-01-25T22:06:40.263Z,78.50
2023-01-25T22:13:03.600Z,78.57
2023-01-25T22:16:08.066Z,79.83
2023-01-25T22:19:10.710Z,79.39
2023-01-25T22:22:13.494Z,79.35
2023-01-25T22:25:16.240Z,78.81
2023-01-25T22:28:19.345Z,78.57
2023-01-25T22:31:24.403Z,78.59
2023-01-25T22:34:27.755Z,78.96
2023-01-25T22:37:28.992Z,78.54
2023-01-25T22:40:31.820Z,78.87
2023-01-25T22:43:33.529Z,78.46
2023-01-25T22:46:37.543Z,79.38
2023-01-25T22:49:40.192Z,78.71
2023-01-25T22:52:41.491Z,78.61
2023-01-25T22:55:44.173Z,78.43
2023-01-25T22:58:46.745Z,78.86
2023-01-25T23:01:50.307Z,79.34
2023-01-25T23:04:51.681Z,78.62
2023-01-25T23:07:54.819Z,77.81
2023-01-25T23:14:40.321Z,78.64
2023-01-25T23:18:01.537Z,78.49
2023-01-25T23:21:05.115Z,78.18
2023-01-25T23:24:07.289Z,79.02
2023-01-25T23:27:09.885Z,78.71
2023-01-25T23:30:12.095Z,78.78
2023-01-25T23:33:14.225Z,78.05
2023-01-25T23:36:18.460Z,78.05
2023-01-25T23:39:20.406Z,77.93
2023-01-25T23:42:22.939Z,78.34
2023-01-25T23:45:24.282Z,78.46
2023-01-25T23:51:49.078Z,78.63
2023-01-25T23:54:50.352Z,78.37
2023-01-25T23:57:54.275Z,78.17
